Time;durP1;ratioP1;P1;durP2;ratioP2;P2;SDS_P1;SDS_P2;PMS_P1;PMS_P2;Temp;Humidity;BMP_temperature;BMP_pressure;BME280_temperature;BME280_humidity;BME280_pressure;Samples;Min_cycle;Max_cycle;Signal;HPM_P1;HPM_P2
2022/08/15 00:00:12;;;;;;;2.27;2.17;;;27.70;69.60;;;;;;4940848;29;20455;-88
2022/08/15 00:02:42;;;;;;;2.77;2.57;;;27.70;70.50;;;;;;4940597;29;20439;-88
2022/08/15 00:05:12;;;;;;;2.13;2.03;;;27.70;69.60;;;;;;4940606;29;20451;-88
2022/08/15 00:07:41;;;;;;;2.33;2.13;;;27.70;69.60;;;;;;4940534;29;20490;-88
2022/08/15 00:10:09;;;;;;;2.40;2.30;;;27.70;69.70;;;;;;4932828;29;20876;-88
2022/08/15 00:12:36;;;;;;;2.50;2.30;;;27.70;69.70;;;;;;4940587;29;20471;-88
2022/08/15 00:15:06;;;;;;;2.30;2.20;;;27.70;69.60;;;;;;4941615;29;21022;-90
2022/08/15 00:17:34;;;;;;;2.30;2.20;;;27.70;69.70;;;;;;4954865;29;20455;-87
2022/08/15 00:20:01;;;;;;;2.03;1.93;;;27.70;69.60;;;;;;4962844;29;20442;-87
2022/08/15 00:22:29;;;;;;;2.47;2.37;;;27.70;69.70;;;;;;4962505;29;20431;-87
2022/08/15 00:24:57;;;;;;;1.80;1.70;;;27.70;69.60;;;;;;4946215;29;20443;-88
2022/08/15 00:27:25;;;;;;;2.53;2.43;;;27.70;69.60;;;;;;4939988;29;20582;-88
2022/08/15 00:29:52;;;;;;;2.40;2.30;;;27.70;69.60;;;;;;4939643;29;20454;-88
2022/08/15 00:32:23;;;;;;;2.40;2.30;;;27.70;69.70;;;;;;4938656;29;20478;-88
2022/08/15 00:34:50;;;;;;;2.10;2.00;;;27.70;69.70;;;;;;4938807;29;20451;-89
2022/08/15 00:37:18;;;;;;;2.40;2.30;;;27.70;69.70;;;;;;4938337;29;20455;-88
2022/08/15 00:39:47;;;;;;;2.60;2.50;;;27.70;69.80;;;;;;4938479;29;20931;-88
2022/08/15 00:42:14;;;;;;;2.40;2.30;;;27.70;69.70;;;;;;4938361;29;20479;-88
2022/08/15 00:44:45;;;;;;;2.40;2.30;;;27.70;69.80;;;;;;4938094;29;20498;-88
2022/08/15 00:47:14;;;;;;;2.20;2.10;;;27.70;69.80;;;;;;4938091;29;20486;-90
2022/08/15 00:49:43;;;;;;;2.13;2.03;;;27.70;69.90;;;;;;4937883;29;20443;-90
2022/08/15 00:52:15;;;;;;;2.50;2.40;;;27.70;69.90;;;;;;4930420;29;20451;-89
2022/08/15 00:54:45;;;;;;;2.30;2.20;;;27.70;70.00;;;;;;4937661;29;20479;-90
2022/08/15 00:57:17;;;;;;;2.37;2.27;;;27.70;69.90;;;;;;4937987;29;20539;-90
2022/08/15 00:59:47;;;;;;;2.40;2.30;;;27.70;69.80;;;;;;4937924;29;20885;-89
2022/08/15 01:02:18;;;;;;;2.30;2.20;;;27.70;69.80;;;;;;4938054;29;20529;-89
2022/08/15 01:04:45;;;;;;;2.50;2.40;;;27.70;69.90;;;;;;4937943;29;20530;-89
2022/08/15 01:07:12;;;;;;;2.30;2.20;;;27.70;69.90;;;;;;4937417;29;20518;-89
2022/08/15 01:09:40;;;;;;;2.40;2.30;;;27.70;69.90;;;;;;4937299;29;20458;-89
2022/08/15 01:12:10;;;;;;;2.23;2.13;;;27.70;69.90;;;;;;4937674;29;20474;-90
2022/08/15 01:14:43;;;;;;;2.20;2.10;;;27.70;70.00;;;;;;4937784;29;20462;-89
2022/08/15 01:17:10;;;;;;;2.03;1.93;;;27.70;70.00;;;;;;4937484;29;20451;-89
2022/08/15 01:19:41;;;;;;;2.30;2.20;;;27.70;70.00;;;;;;4937296;29;20596;-89
2022/08/15 01:22:31;;;;;;;2.20;2.10;;;27.70;70.00;;;;;;4937386;29;20535;-89
2022/08/15 01:25:05;;;;;;;2.50;2.40;;;27.70;69.90;;;;;;4937356;29;20476;-89
2022/08/15 01:27:37;;;;;;;2.53;2.33;;;27.70;70.00;;;;;;4937170;29;20537;-89
2022/08/15 01:30:06;;;;;;;2.30;2.20;;;27.70;70.00;;;;;;4937883;29;20468;-88
2022/08/15 01:32:33;;;;;;;1.93;1.83;;;27.70;70.00;;;;;;4937333;29;20451;-88
2022/08/15 01:35:03;;;;;;;2.57;2.47;;;27.70;70.10;;;;;;4937186;29;20462;-89
2022/08/15 01:37:30;;;;;;;2.27;2.17;;;27.70;70.10;;;;;;4937171;29;20443;-88
2022/08/15 01:40:03;;;;;;;2.17;2.07;;;27.70;71.00;;;;;;4937257;29;20458;-89
2022/08/15 01:42:35;;;;;;;2.57;2.40;;;27.70;70.10;;;;;;4937372;29;20474;-90
2022/08/15 01:45:06;;;;;;;2.40;2.30;;;27.70;70.20;;;;;;4937407;29;20522;-89
2022/08/15 01:47:39;;;;;;;2.27;2.17;;;27.70;70.40;;;;;;4936956;29;20578;-89
2022/08/15 01:50:09;;;;;;;2.40;2.30;;;27.70;70.40;;;;;;4937429;29;20463;-89
2022/08/15 01:52:40;;;;;;;2.60;2.50;;;27.70;70.30;;;;;;4936870;29;20540;-89
2022/08/15 01:55:13;;;;;;;2.30;2.20;;;27.70;70.30;;;;;;4936728;29;20479;-89
2022/08/15 01:57:40;;;;;;;2.00;1.90;;;27.70;70.30;;;;;;4936857;29;20457;-89
2022/08/15 02:00:09;;;;;;;2.67;2.57;;;27.70;70.30;;;;;;4936909;29;20489;-89
2022/08/15 02:02:36;;;;;;;2.50;2.40;;;27.70;70.20;;;;;;4936468;29;20447;-89
2022/08/15 02:05:04;;;;;;;2.27;2.17;;;27.70;69.90;;;;;;4936808;29;20451;-89
2022/08/15 02:07:32;;;;;;;2.47;2.37;;;27.70;69.80;;;;;;4936557;29;20518;-89
2022/08/15 02:09:59;;;;;;;2.27;2.17;;;27.70;69.80;;;;;;4936861;29;20443;-89
2022/08/15 02:12:31;;;;;;;2.50;2.40;;;27.70;69.80;;;;;;4936640;29;20455;-89
2022/08/15 02:15:00;;;;;;;2.40;2.30;;;27.70;69.80;;;;;;4936806;29;20526;-89
2022/08/15 02:17:27;;;;;;;2.70;2.60;;;27.70;69.80;;;;;;4936245;29;20447;-89
2022/08/15 02:19:54;;;;;;;2.43;2.33;;;27.70;69.80;;;;;;4936396;29;20537;-89
2022/08/15 02:22:23;;;;;;;2.60;2.50;;;27.70;69.80;;;;;;4936622;29;20483;-89
2022/08/15 02:24:50;;;;;;;2.50;2.40;;;27.70;69.80;;;;;;4936443;29;20880;-90
2022/08/15 02:27:18;;;;;;;3.00;2.37;;;27.70;69.90;;;;;;4936576;29;20546;-90
2022/08/15 02:29:46;;;;;;;2.33;2.23;;;27.70;69.90;;;;;;4936132;29;20456;-90
2022/08/15 02:32:17;;;;;;;2.50;2.33;;;27.70;69.80;;;;;;4936444;29;20447;-89
2022/08/15 02:34:46;;;;;;;2.47;2.37;;;27.50;69.70;;;;;;4936346;29;20455;-89
2022/08/15 02:37:18;;;;;;;2.23;2.13;;;27.70;69.90;;;;;;4936503;29;20459;-89
2022/08/15 02:39:46;;;;;;;2.70;2.50;;;27.70;69.90;;;;;;4936187;29;20478;-88
2022/08/15 02:42:14;;;;;;;2.37;2.27;;;27.70;70.00;;;;;;4937026;29;20471;-89
2022/08/15 02:44:41;;;;;;;2.27;2.17;;;27.70;69.90;;;;;;4936311;29;20443;-90
2022/08/15 02:47:14;;;;;;;3.20;3.03;;;27.70;70.00;;;;;;4936238;29;20494;-90
2022/08/15 02:49:42;;;;;;;2.70;2.60;;;27.70;70.10;;;;;;4936252;29;20939;-89
2022/08/15 02:52:09;;;;;;;2.50;2.40;;;27.70;70.20;;;;;;4936387;29;20526;-89
2022/08/15 02:54:36;;;;;;;2.57;2.47;;;27.70;70.30;;;;;;4935862;29;20478;-89
2022/08/15 02:57:04;;;;;;;2.47;2.37;;;27.70;70.30;;;;;;4936063;29;20554;-89
2022/08/15 02:59:31;;;;;;;2.50;2.40;;;27.70;70.40;;;;;;4936168;29;20546;-89
2022/08/15 03:01:59;;;;;;;3.13;2.97;;;27.70;70.30;;;;;;4935959;29;20458;-89
2022/08/15 03:04:30;;;;;;;2.67;2.57;;;27.70;70.50;;;;;;4936051;29;20954;-89
2022/08/15 03:06:57;;;;;;;2.63;2.53;;;27.70;70.50;;;;;;4935970;29;20982;-89
2022/08/15 03:09:24;;;;;;;2.57;2.47;;;27.70;70.40;;;;;;4935708;29;20550;-90
2022/08/15 03:11:51;;;;;;;2.53;2.43;;;27.70;70.40;;;;;;4936074;29;20889;-89
2022/08/15 03:14:20;;;;;;;2.90;2.80;;;27.70;70.40;;;;;;4936100;29;20475;-89
2022/08/15 03:16:49;;;;;;;2.40;2.30;;;27.70;70.50;;;;;;4935911;29;20497;-89
2022/08/15 03:19:20;;;;;;;3.00;2.90;;;27.70;70.50;;;;;;4936009;29;20451;-89
2022/08/15 03:21:49;;;;;;;3.20;3.10;;;27.70;70.50;;;;;;4936030;29;20530;-90
2022/08/15 03:24:17;;;;;;;2.70;2.60;;;27.70;70.40;;;;;;4935604;29;20447;-89
2022/08/15 03:26:46;;;;;;;2.40;2.30;;;27.70;70.60;;;;;;4935516;29;20541;-89
2022/08/15 03:29:16;;;;;;;2.10;2.00;;;27.70;70.50;;;;;;4935651;29;20962;-90
2022/08/15 03:31:44;;;;;;;2.07;1.97;;;27.70;70.60;;;;;;4938758;29;20431;-89
2022/08/15 03:34:12;;;;;;;2.40;2.30;;;27.70;70.70;;;;;;4939667;29;20451;-89
2022/08/15 03:36:44;;;;;;;2.80;2.70;;;27.70;70.70;;;;;;4939279;29;20478;-90
2022/08/15 03:39:13;;;;;;;2.50;2.40;;;27.70;70.70;;;;;;4939521;29;20514;-89
2022/08/15 03:41:40;;;;;;;2.60;2.50;;;27.70;70.80;;;;;;4939272;29;20874;-89
2022/08/15 03:44:07;;;;;;;2.53;2.43;;;27.70;70.80;;;;;;4931180;29;20474;-89
2022/08/15 03:46:34;;;;;;;3.00;2.80;;;27.70;71.70;;;;;;4939320;29;20478;-89
2022/08/15 03:49:01;;;;;;;2.87;2.77;;;27.60;70.50;;;;;;4939331;29;20497;-89
2022/08/15 03:51:29;;;;;;;2.87;2.70;;;27.70;70.40;;;;;;4938992;29;21023;-89
2022/08/15 03:53:59;;;;;;;2.83;2.63;;;27.60;70.20;;;;;;4939151;29;20489;-89
2022/08/15 03:56:30;;;;;;;2.33;2.23;;;27.70;70.10;;;;;;4920719;29;20486;-89
2022/08/15 03:58:59;;;;;;;2.90;2.77;;;27.70;69.90;;;;;;4919848;29;20472;-89
2022/08/15 04:01:29;;;;;;;2.17;2.07;;;27.70;69.80;;;;;;4920059;29;20544;-89
2022/08/15 04:03:56;;;;;;;2.43;2.33;;;27.70;69.70;;;;;;4920292;29;20435;-89
2022/08/15 04:06:25;;;;;;;2.40;2.30;;;27.60;69.50;;;;;;4919748;29;20490;-90
2022/08/15 04:08:54;;;;;;;2.30;2.20;;;27.70;69.40;;;;;;4919915;29;20499;-90
2022/08/15 04:11:24;;;;;;;1.97;1.87;;;27.60;69.30;;;;;;4919946;29;20448;-90
2022/08/15 04:13:53;;;;;;;1.80;1.70;;;27.70;69.40;;;;;;4920045;29;20501;-89
2022/08/15 04:16:20;;;;;;;2.90;2.80;;;27.60;69.20;;;;;;4920320;29;20519;-90
2022/08/15 04:18:47;;;;;;;2.30;2.20;;;27.60;69.20;;;;;;4920450;29;20460;-90
2022/08/15 04:21:14;;;;;;;2.00;1.90;;;27.60;69.10;;;;;;4919584;29;20546;-89
2022/08/15 04:23:43;;;;;;;2.50;2.40;;;27.60;69.00;;;;;;4919659;29;20505;-89
2022/08/15 04:26:11;;;;;;;1.97;1.87;;;27.70;69.00;;;;;;4919210;29;21047;-89
2022/08/15 04:28:38;;;;;;;2.03;1.93;;;27.60;69.00;;;;;;4919260;29;20495;-89
2022/08/15 04:31:08;;;;;;;2.33;2.23;;;27.60;69.00;;;;;;4919680;29;20527;-89
2022/08/15 04:33:35;;;;;;;2.10;2.00;;;27.60;69.00;;;;;;4919587;29;20527;-90
2022/08/15 04:36:09;;;;;;;2.03;1.93;;;27.60;69.00;;;;;;4919033;29;20458;-89
2022/08/15 04:38:36;;;;;;;2.03;1.93;;;27.60;68.90;;;;;;4919497;29;20451;-89
2022/08/15 04:41:04;;;;;;;2.10;2.00;;;27.60;68.90;;;;;;4918617;29;20494;-91
2022/08/15 04:43:32;;;;;;;2.40;2.30;;;27.60;68.90;;;;;;4919371;29;20456;-89
2022/08/15 04:46:00;;;;;;;2.03;1.93;;;27.60;68.90;;;;;;4919096;29;20444;-90
2022/08/15 04:48:29;;;;;;;2.03;1.93;;;27.60;68.90;;;;;;4918791;29;20523;-89
2022/08/15 04:50:58;;;;;;;1.90;1.80;;;27.60;68.90;;;;;;4918984;29;20446;-89
2022/08/15 04:53:27;;;;;;;2.07;1.97;;;27.60;68.90;;;;;;4919269;29;20490;-89
2022/08/15 04:55:56;;;;;;;2.00;1.90;;;27.60;68.90;;;;;;4933878;29;20574;-89
2022/08/15 04:58:24;;;;;;;2.30;2.20;;;27.60;68.90;;;;;;4937876;29;20451;-89
2022/08/15 05:00:57;;;;;;;2.20;2.00;;;27.60;68.90;;;;;;4937937;29;20470;-89
2022/08/15 05:03:25;;;;;;;1.80;1.70;;;27.60;68.90;;;;;;4938357;29;20841;-89
2022/08/15 05:05:56;;;;;;;1.67;1.57;;;27.60;69.00;;;;;;4938005;29;20447;-89
2022/08/15 05:08:26;;;;;;;2.10;2.00;;;27.60;69.00;;;;;;4937858;29;20841;-89
2022/08/15 05:10:58;;;;;;;1.83;1.73;;;27.60;69.90;;;;;;4938104;29;20455;-89
2022/08/15 05:13:28;;;;;;;2.23;2.13;;;27.60;69.00;;;;;;4937779;29;20489;-89
2022/08/15 05:15:55;;;;;;;1.80;1.70;;;27.60;69.00;;;;;;4937858;29;20779;-90
2022/08/15 05:18:23;;;;;;;1.97;1.87;;;27.60;69.00;;;;;;4937430;29;20534;-90
2022/08/15 05:20:50;;;;;;;1.90;1.70;;;27.60;69.00;;;;;;4937539;29;20493;-89
2022/08/15 05:23:20;;;;;;;1.70;1.60;;;27.60;69.10;;;;;;4938194;29;20481;-89
2022/08/15 05:25:51;;;;;;;2.07;1.97;;;27.60;69.10;;;;;;4937354;29;20550;-90
2022/08/15 05:28:18;;;;;;;1.87;1.77;;;27.60;69.10;;;;;;4937220;29;20586;-89
2022/08/15 05:30:45;;;;;;;1.90;1.80;;;27.60;70.10;;;;;;4937410;29;20530;-90
2022/08/15 05:33:15;;;;;;;1.97;1.87;;;27.60;69.20;;;;;;4937287;29;20539;-89
2022/08/15 05:35:44;;;;;;;2.03;1.93;;;27.60;69.30;;;;;;4936891;29;20439;-91
2022/08/15 05:38:15;;;;;;;1.93;1.83;;;27.60;69.30;;;;;;4936960;29;20458;-88
2022/08/15 05:40:54;;;;;;;2.00;1.90;;;27.60;69.40;;;;;;4936769;29;20546;-88
2022/08/15 05:43:30;;;;;;;1.83;1.73;;;27.60;69.30;;;;;;4937356;29;20873;-88
2022/08/15 05:46:12;;;;;;;1.77;1.67;;;27.60;69.30;;;;;;4936882;29;20461;-88
2022/08/15 05:48:39;;;;;;;1.70;1.60;;;27.60;69.30;;;;;;4936974;29;20526;-88
2022/08/15 05:51:12;;;;;;;3.00;1.67;;;27.60;69.30;;;;;;4937116;29;20451;-88
2022/08/15 05:53:54;;;;;;;1.93;1.83;;;27.60;69.30;;;;;;4936416;29;20495;-89
2022/08/15 05:56:32;;;;;;;1.70;1.60;;;27.60;69.30;;;;;;4936646;29;20816;-89
2022/08/15 05:59:03;;;;;;;1.80;1.70;;;27.60;69.30;;;;;;4936635;29;20451;-89
2022/08/15 06:01:34;;;;;;;2.03;1.93;;;27.60;69.40;;;;;;4936964;29;20443;-88
2022/08/15 06:04:08;;;;;;;1.90;1.80;;;27.60;69.30;;;;;;4936577;29;20431;-89
2022/08/15 06:06:38;;;;;;;1.83;1.73;;;27.60;69.40;;;;;;4936536;29;20630;-88
2022/08/15 06:09:23;;;;;;;2.03;1.83;;;27.60;69.40;;;;;;4936475;29;20538;-90
2022/08/15 06:11:55;;;;;;;2.00;1.90;;;27.60;69.40;;;;;;4936843;29;20457;-88
2022/08/15 06:14:29;;;;;;;2.10;2.00;;;27.60;69.40;;;;;;4936844;29;20471;-88
2022/08/15 06:17:01;;;;;;;1.60;1.50;;;27.60;69.40;;;;;;4936516;29;20955;-89
2022/08/15 06:19:32;;;;;;;1.77;1.67;;;27.60;69.50;;;;;;4936683;29;20449;-88
2022/08/15 06:22:08;;;;;;;1.70;1.60;;;27.60;69.50;;;;;;4936757;29;20459;-89
2022/08/15 06:24:44;;;;;;;1.80;1.70;;;27.60;69.50;;;;;;4936487;29;20922;-89
2022/08/15 06:27:20;;;;;;;2.07;1.97;;;27.60;69.60;;;;;;4936479;29;20471;-89
2022/08/15 06:30:06;;;;;;;1.80;1.70;;;27.60;69.80;;;;;;4936555;29;20533;-88
2022/08/15 06:32:39;;;;;;;1.77;1.67;;;27.60;69.60;;;;;;4937127;29;20538;-88
2022/08/15 06:35:23;;;;;;;1.50;1.40;;;27.60;69.70;;;;;;4936189;29;20542;-89
2022/08/15 06:38:02;;;;;;;1.60;1.50;;;27.60;70.60;;;;;;4936501;29;20920;-89
2022/08/15 06:40:40;;;;;;;1.97;1.87;;;27.60;69.90;;;;;;4936433;29;20542;-90
2022/08/15 06:43:11;;;;;;;1.77;1.67;;;27.60;69.90;;;;;;4928598;29;20522;-90
2022/08/15 06:45:40;;;;;;;1.90;1.80;;;27.60;70.20;;;;;;4936371;29;20507;-88
2022/08/15 06:48:11;;;;;;;1.90;1.80;;;27.60;69.90;;;;;;4936161;29;20569;-89
2022/08/15 06:50:41;;;;;;;1.60;1.50;;;27.60;70.00;;;;;;4936335;29;20439;-88
2022/08/15 06:53:13;;;;;;;1.83;1.73;;;27.60;70.00;;;;;;4936077;29;20486;-88
2022/08/15 06:55:49;;;;;;;2.00;1.90;;;27.60;70.10;;;;;;4935928;29;20487;-89
2022/08/15 06:58:24;;;;;;;1.97;1.87;;;27.60;69.90;;;;;;4936205;29;20431;-89
2022/08/15 07:01:28;;;;;;;1.90;1.80;;;27.60;70.00;;;;;;4940238;29;20449;-96
2022/08/15 07:04:05;;;;;;;1.90;1.80;;;27.60;69.80;;;;;;4940887;29;20458;-96
2022/08/15 07:06:40;;;;;;;2.03;1.93;;;27.60;70.00;;;;;;4946306;29;20481;-93
2022/08/15 07:09:33;;;;;;;1.90;1.80;;;27.60;70.10;;;;;;4967577;23;20811;-95
2022/08/15 07:12:35;;;;;;;1.70;1.60;;;27.60;70.30;;;;;;4993781;28;20506;-93
2022/08/15 07:24:26;;;;;;;2.60;1.70;;;27.50;70.40;;;;;;4941513;29;20440;-92
2022/08/15 07:26:59;;;;;;;1.90;1.80;;;27.50;70.50;;;;;;4939767;29;20542;-91
2022/08/15 07:29:34;;;;;;;2.40;1.70;;;27.50;70.60;;;;;;4953776;29;20551;-96
2022/08/15 07:32:39;;;;;;;2.33;2.00;;;27.50;70.30;;;;;;4979737;23;20524;-92
2022/08/15 07:35:41;;;;;;;2.30;2.20;;;27.60;70.20;;;;;;4994186;28;20805;-91
2022/08/15 07:41:54;;;;;;;2.10;1.90;;;27.60;70.60;;;;;;4996872;28;20401;-92
2022/08/15 07:47:27;;;;;;;2.37;1.80;;;27.50;70.90;;;;;;4998311;28;20444;-95
2022/08/15 07:50:49;;;;;;;2.90;1.87;;;27.50;71.90;;;;;;5072914;23;20489;-91
2022/08/15 08:00:05;;;;;;;2.90;1.80;;;27.50;70.80;;;;;;5138843;27;20510;-91
2022/08/15 08:02:44;;;;;;;2.33;2.13;;;27.50;71.20;;;;;;5137052;28;20423;-90
2022/08/15 08:05:21;;;;;;;2.13;2.03;;;27.50;71.60;;;;;;5124563;28;20505;-92
2022/08/15 08:08:19;;;;;;;2.50;2.00;;;27.50;71.90;;;;;;5139183;22;20481;-91
2022/08/15 08:10:55;;;;;;;3.67;1.90;;;27.60;71.60;;;;;;5111279;28;20454;-90
2022/08/15 08:13:39;;;;;;;2.03;1.90;;;27.50;71.80;;;;;;5110880;28;20447;-89
2022/08/15 08:16:17;;;;;;;2.40;2.20;;;27.50;71.80;;;;;;5109895;28;20860;-91
2022/08/15 08:18:51;;;;;;;2.57;2.37;;;27.50;71.50;;;;;;5110552;28;20483;-88
2022/08/15 08:21:21;;;;;;;2.37;2.20;;;27.60;72.10;;;;;;5110851;28;20531;-88
2022/08/15 08:23:52;;;;;;;2.77;2.57;;;27.60;71.80;;;;;;5110663;28;20442;-88
2022/08/15 08:26:28;;;;;;;2.90;2.70;;;27.60;71.30;;;;;;5111228;28;20534;-90
2022/08/15 08:29:07;;;;;;;2.57;2.23;;;27.60;71.10;;;;;;5110573;28;20486;-88
2022/08/15 08:31:43;;;;;;;3.67;3.37;;;27.60;71.30;;;;;;5110329;28;20439;-88
2022/08/15 08:34:18;;;;;;;4.90;2.57;;;27.60;71.20;;;;;;5110953;28;20534;-88
2022/08/15 08:36:56;;;;;;;5.27;2.40;;;27.60;71.30;;;;;;5110887;28;20439;-87
2022/08/15 08:39:37;;;;;;;2.50;2.30;;;27.60;70.80;;;;;;5107968;28;20534;-88
2022/08/15 08:42:15;;;;;;;2.90;2.50;;;27.60;70.80;;;;;;5109805;28;20513;-95
2022/08/15 08:44:50;;;;;;;3.80;2.67;;;27.60;70.40;;;;;;5110164;28;20870;-89
2022/08/15 08:47:29;;;;;;;2.37;2.17;;;27.60;70.60;;;;;;5108568;28;20493;-92
2022/08/15 08:50:11;;;;;;;2.70;2.50;;;27.60;70.70;;;;;;5110276;28;20534;-88
2022/08/15 08:52:45;;;;;;;2.60;2.30;;;27.60;70.70;;;;;;5110157;28;20447;-95
2022/08/15 08:55:19;;;;;;;2.40;2.20;;;27.60;70.90;;;;;;5110152;28;20577;-95
2022/08/15 08:57:50;;;;;;;3.63;2.60;;;27.60;70.70;;;;;;5110059;28;20549;-88
2022/08/15 09:00:20;;;;;;;2.53;2.33;;;27.60;70.70;;;;;;5110081;28;20440;-95
2022/08/15 09:02:52;;;;;;;2.70;1.93;;;27.60;70.50;;;;;;5110223;28;20465;-93
2022/08/15 09:05:29;;;;;;;2.70;2.50;;;27.60;70.70;;;;;;5108020;28;20431;-89
2022/08/15 09:08:01;;;;;;;2.60;2.40;;;27.60;70.50;;;;;;5108884;28;20792;-87
2022/08/15 09:10:34;;;;;;;3.43;2.50;;;27.60;70.90;;;;;;5079270;28;20528;-87
2022/08/15 09:15:53;;;;;;;2.57;2.47;;;27.60;70.80;;;;;;5077248;28;20425;-88
2022/08/15 09:18:25;;;;;;;2.93;2.33;;;27.60;71.10;;;;;;5076019;28;20900;-88
2022/08/15 09:20:52;;;;;;;2.47;2.33;;;27.60;71.10;;;;;;5087329;28;20473;-95
2022/08/15 09:23:20;;;;;;;2.90;2.70;;;27.60;71.60;;;;;;5096207;28;20450;-93
2022/08/15 09:25:58;;;;;;;2.90;2.20;;;27.60;71.20;;;;;;5096488;28;20464;-88
2022/08/15 09:28:32;;;;;;;2.23;2.00;;;27.60;71.50;;;;;;5100137;28;20534;-87
2022/08/15 09:31:03;;;;;;;3.70;2.70;;;27.70;71.40;;;;;;5096041;28;20543;-84
2022/08/15 09:34:04;;;;;;;4.50;2.77;;;27.60;71.60;;;;;;5095868;28;20446;-85
2022/08/15 09:36:56;;;;;;;9.07;2.30;;;27.60;71.80;;;;;;5054190;28;20481;-84
2022/08/15 09:39:41;;;;;;;3.97;2.50;;;27.60;72.30;;;;;;5095970;28;20488;-85
2022/08/15 09:42:25;;;;;;;5.00;3.00;;;27.60;71.90;;;;;;5096033;28;20440;-85
2022/08/15 09:45:14;;;;;;;2.77;2.03;;;27.60;72.00;;;;;;5097019;28;20447;-84
2022/08/15 09:48:00;;;;;;;3.10;2.40;;;27.60;72.00;;;;;;5098284;28;20444;-85
2022/08/15 09:50:43;;;;;;;4.30;2.47;;;27.60;72.30;;;;;;5098636;28;20840;-85
2022/08/15 09:53:29;;;;;;;5.87;2.40;;;27.60;72.20;;;;;;5095642;28;20542;-85
2022/08/15 09:56:03;;;;;;;13.53;3.77;;;27.60;72.70;;;;;;5095455;28;20446;-85
2022/08/15 09:58:35;;;;;;;6.83;2.80;;;27.60;72.10;;;;;;5095882;28;21083;-93
2022/08/15 10:01:08;;;;;;;9.07;3.53;;;27.60;73.40;;;;;;5095510;28;20862;-86
2022/08/15 10:03:55;;;;;;;4.93;2.60;;;27.60;72.80;;;;;;5095703;28;20443;-86
2022/08/15 10:06:26;;;;;;;7.00;2.53;;;27.60;72.00;;;;;;5095554;28;20428;-85
2022/08/15 10:09:31;;;;;;;8.20;2.90;;;27.60;72.40;;;;;;5095172;28;20562;-85
2022/08/15 10:12:06;;;;;;;7.70;2.10;;;27.60;72.20;;;;;;5054203;28;20457;-94
2022/08/15 10:14:42;;;;;;;4.50;2.77;;;27.60;72.80;;;;;;5095687;28;20493;-85
2022/08/15 10:17:38;;;;;;;3.90;2.87;;;27.60;72.20;;;;;;5075850;28;20440;-85
2022/08/15 10:20:42;;;;;;;6.40;2.57;;;27.60;71.70;;;;;;5072095;28;20440;-85
2022/08/15 10:23:15;;;;;;;4.27;2.20;;;27.60;72.10;;;;;;5072519;28;20448;-85
2022/08/15 10:25:45;;;;;;;4.13;2.60;;;27.50;72.00;;;;;;5072426;28;20989;-84
2022/08/15 10:28:24;;;;;;;7.30;2.70;;;27.60;71.30;;;;;;5072579;28;20539;-85
2022/08/15 10:31:25;;;;;;;7.43;3.03;;;27.70;71.30;;;;;;5072911;28;20532;-85
2022/08/15 10:33:53;;;;;;;6.80;2.80;;;27.60;70.90;;;;;;5041251;28;20432;-85
2022/08/15 10:36:26;;;;;;;9.87;2.77;;;27.60;70.80;;;;;;5074311;28;20433;-85
2022/08/15 10:39:23;;;;;;;11.87;3.53;;;27.60;70.80;;;;;;5073849;28;20555;-85
2022/08/15 10:42:03;;;;;;;18.47;4.57;;;27.60;71.00;;;;;;5074667;28;20437;-88
2022/08/15 10:47:26;;;;;;;13.00;3.70;;;27.70;71.20;;;;;;5100318;22;20479;-92
2022/08/15 10:50:06;;;;;;;6.80;3.10;;;27.70;71.10;;;;;;5094803;28;20482;-92
2022/08/15 10:52:49;;;;;;;13.30;3.70;;;27.70;71.20;;;;;;5094897;28;20452;-91
2022/08/15 10:55:30;;;;;;;13.73;4.13;;;27.60;71.60;;;;;;5094477;28;20512;-91
2022/08/15 10:58:01;;;;;;;20.63;3.27;;;27.70;71.80;;;;;;5094273;28;20521;-91
2022/08/15 11:00:46;;;;;;;12.83;4.37;;;27.70;71.70;;;;;;5095196;28;20847;-91
2022/08/15 11:03:18;;;;;;;15.03;4.60;;;27.70;71.60;;;;;;5094817;28;20420;-91
2022/08/15 11:05:55;;;;;;;19.13;4.60;;;27.70;72.10;;;;;;5094617;28;20454;-91
2022/08/15 11:11:29;;;;;;;8.13;3.67;;;27.70;72.30;;;;;;5132763;22;20467;-95
2022/08/15 11:13:59;;;;;;;9.77;4.03;;;27.60;72.50;;;;;;5118986;28;20839;-87
2022/08/15 11:16:31;;;;;;;15.60;3.83;;;27.70;72.40;;;;;;5115635;28;20477;-86
2022/08/15 11:19:01;;;;;;;10.97;3.37;;;27.60;72.90;;;;;;5114335;28;20574;-90
2022/08/15 11:21:38;;;;;;;21.67;5.27;;;27.70;72.60;;;;;;5114281;28;20439;-87
2022/08/15 11:24:07;;;;;;;6.53;3.90;;;27.70;72.50;;;;;;5113345;28;20537;-84
2022/08/15 11:26:37;;;;;;;13.27;3.90;;;27.70;73.60;;;;;;5113147;28;20435;-85
2022/08/15 11:29:10;;;;;;;9.37;3.80;;;27.70;72.30;;;;;;5113153;28;20555;-84
2022/08/15 11:31:45;;;;;;;13.50;3.73;;;27.70;72.70;;;;;;5112973;28;20455;-85
2022/08/15 11:34:25;;;;;;;6.20;3.00;;;27.70;72.80;;;;;;5113056;28;20529;-84
2022/08/15 11:36:55;;;;;;;21.23;3.23;;;27.80;72.70;;;;;;5113307;28;20938;-85
2022/08/15 11:39:22;;;;;;;7.00;3.63;;;27.70;73.30;;;;;;5113372;28;20920;-86
2022/08/15 11:41:55;;;;;;;7.43;3.53;;;27.70;72.10;;;;;;5113185;28;20518;-86
2022/08/15 11:44:30;;;;;;;10.70;3.43;;;27.70;72.60;;;;;;5113684;28;20945;-88
2022/08/15 11:46:57;;;;;;;8.53;4.97;;;27.70;72.70;;;;;;5114504;28;20526;-88
2022/08/15 11:49:31;;;;;;;14.20;7.80;;;27.70;72.80;;;;;;5114330;28;20443;-88
2022/08/15 11:52:04;;;;;;;20.97;9.00;;;27.70;73.40;;;;;;5113802;28;20913;-89
2022/08/15 11:54:31;;;;;;;22.10;9.20;;;27.70;74.00;;;;;;5113661;28;20529;-87
2022/08/15 11:57:01;;;;;;;22.10;9.90;;;27.70;74.60;;;;;;5113629;28;20438;-89
2022/08/15 11:59:31;;;;;;;13.73;7.67;;;27.70;74.60;;;;;;5113664;28;20551;-88
2022/08/15 12:02:10;;;;;;;14.17;8.07;;;27.70;74.10;;;;;;5113882;28;20439;-88
2022/08/15 12:04:40;;;;;;;16.70;9.03;;;27.70;74.30;;;;;;5113708;28;20953;-84
2022/08/15 12:07:14;;;;;;;20.57;8.30;;;27.70;74.20;;;;;;5113816;28;20548;-85
2022/08/15 12:09:51;;;;;;;16.13;7.77;;;27.70;74.50;;;;;;5113642;28;20443;-89
2022/08/15 12:12:28;;;;;;;19.60;8.00;;;27.80;74.00;;;;;;5113043;28;20478;-87
2022/08/15 12:15:01;;;;;;;16.40;7.80;;;27.70;73.80;;;;;;5113552;28;20815;-88
2022/08/15 12:17:31;;;;;;;17.33;7.27;;;27.70;73.50;;;;;;5113711;28;20439;-88
2022/08/15 12:19:58;;;;;;;15.97;8.13;;;27.70;73.80;;;;;;5113953;28;20494;-88
2022/08/15 12:22:34;;;;;;;14.87;6.27;;;27.70;73.20;;;;;;5114730;28;20446;-88
2022/08/15 12:25:02;;;;;;;11.73;6.20;;;27.80;73.70;;;;;;5116804;28;20457;-88
2022/08/15 12:27:30;;;;;;;14.57;6.60;;;27.80;74.00;;;;;;5118435;28;20510;-88
2022/08/15 12:29:57;;;;;;;11.37;6.43;;;27.80;73.10;;;;;;5114944;28;20466;-92
2022/08/15 12:32:24;;;;;;;11.83;6.60;;;27.80;73.00;;;;;;5114336;28;20857;-93
2022/08/15 12:34:54;;;;;;;9.83;5.30;;;27.70;72.20;;;;;;5114374;28;20442;-93
2022/08/15 12:37:24;;;;;;;11.40;5.50;;;27.80;72.20;;;;;;5113968;28;20459;-92
2022/08/15 12:39:53;;;;;;;10.80;5.00;;;27.70;72.20;;;;;;5113438;28;20485;-89
2022/08/15 12:42:23;;;;;;;7.93;4.60;;;27.80;72.50;;;;;;5113596;28;20500;-90
2022/08/15 12:44:54;;;;;;;10.60;5.33;;;27.80;72.60;;;;;;5115852;28;20463;-89
2022/08/15 12:47:21;;;;;;;8.23;5.00;;;27.80;72.40;;;;;;5117065;28;20443;-89
2022/08/15 12:49:49;;;;;;;9.43;5.23;;;27.80;72.40;;;;;;5117463;28;20812;-90
2022/08/15 12:52:19;;;;;;;10.07;5.30;;;27.80;72.20;;;;;;5117318;28;20443;-90
2022/08/15 12:54:46;;;;;;;9.37;4.73;;;27.80;72.10;;;;;;5117557;28;20447;-90
2022/08/15 12:57:13;;;;;;;9.07;4.80;;;27.80;72.10;;;;;;5117533;28;20435;-89
2022/08/15 12:59:40;;;;;;;9.03;5.90;;;27.80;72.00;;;;;;5117079;28;20531;-90
2022/08/15 13:02:11;;;;;;;9.53;4.27;;;27.80;72.10;;;;;;5117097;28;20888;-89
2022/08/15 13:04:38;;;;;;;7.43;4.97;;;27.80;72.10;;;;;;5116677;28;20443;-89
2022/08/15 13:07:05;;;;;;;7.97;4.43;;;27.80;72.20;;;;;;5117520;28;20457;-96
2022/08/15 13:09:34;;;;;;;11.10;5.00;;;27.80;72.10;;;;;;5119305;28;20478;-96
2022/08/15 13:12:01;;;;;;;7.37;4.07;;;27.80;72.30;;;;;;5117629;28;20882;-96
2022/08/15 13:14:29;;;;;;;16.97;4.73;;;27.80;72.30;;;;;;5118678;28;20446;-94
2022/08/15 13:16:56;;;;;;;7.17;4.00;;;27.80;72.40;;;;;;5119856;28;21001;-96
2022/08/15 13:19:26;;;;;;;8.57;4.43;;;27.80;72.20;;;;;;5117818;28;20855;-95
2022/08/15 13:24:39;;;;;;;10.87;4.00;;;27.80;72.10;;;;;;5118841;28;20419;-95
2022/08/15 13:27:07;;;;;;;7.23;3.83;;;27.80;72.20;;;;;;5118329;28;20455;-96
2022/08/15 13:29:36;;;;;;;7.00;3.23;;;27.80;72.30;;;;;;5127699;28;20435;-92
2022/08/15 13:32:07;;;;;;;4.60;3.60;;;27.80;72.10;;;;;;5133843;28;20461;-95
2022/08/15 13:34:36;;;;;;;8.00;4.50;;;27.80;72.40;;;;;;5134335;28;20415;-92
2022/08/15 13:37:04;;;;;;;8.97;3.50;;;27.80;72.30;;;;;;5117865;28;20805;-94
2022/08/15 13:39:35;;;;;;;9.43;4.20;;;27.80;72.20;;;;;;5117525;28;20486;-96
2022/08/15 13:42:02;;;;;;;10.27;4.40;;;27.80;72.20;;;;;;5117755;28;20530;-96
2022/08/15 13:44:29;;;;;;;5.13;3.03;;;27.80;72.20;;;;;;5118673;28;20534;-95
2022/08/15 13:46:57;;;;;;;5.57;3.43;;;27.80;72.10;;;;;;5118175;28;20438;-96